sensor_id;sensor_type;location;lat;lon;timestamp;temperature;humidity
17053;DHT22;8643;48.824;11.422;2024-02-26T00:00:05;3.40;99.90
17053;DHT22;8643;48.824;11.422;2024-02-26T00:02:36;3.40;99.90
17053;DHT22;8643;48.824;11.422;2024-02-26T00:05:05;3.30;99.90
17053;DHT22;8643;48.824;11.422;2024-02-26T00:07:35;3.20;99.90
17053;DHT22;8643;48.824;11.422;2024-02-26T00:10:07;3.10;99.90
17053;DHT22;8643;48.824;11.422;2024-02-26T00:15:06;2.90;99.90
17053;DHT22;8643;48.824;11.422;2024-02-26T00:17:36;2.80;99.90
17053;DHT22;8643;48.824;11.422;2024-02-26T00:20:06;2.70;99.90
17053;DHT22;8643;48.824;11.422;2024-02-26T00:22:36;2.70;99.90
17053;DHT22;8643;48.824;11.422;2024-02-26T00:25:07;2.50;99.90
17053;DHT22;8643;48.824;11.422;2024-02-26T00:27:35;2.60;99.90
17053;DHT22;8643;48.824;11.422;2024-02-26T00:30:05;2.50;99.90
17053;DHT22;8643;48.824;11.422;2024-02-26T00:32:34;2.40;99.90
17053;DHT22;8643;48.824;11.422;2024-02-26T00:35:03;2.40;99.90
17053;DHT22;8643;48.824;11.422;2024-02-26T00:37:32;2.30;99.90
17053;DHT22;8643;48.824;11.422;2024-02-26T00:40:01;2.30;99.90
17053;DHT22;8643;48.824;11.422;2024-02-26T00:42:31;3.50;99.90
17053;DHT22;8643;48.824;11.422;2024-02-26T00:44:59;2.40;99.90
17053;DHT22;8643;48.824;11.422;2024-02-26T00:47:28;2.40;99.90
17053;DHT22;8643;48.824;11.422;2024-02-26T00:49:56;2.40;99.90
17053;DHT22;8643;48.824;11.422;2024-02-26T00:57:22;2.40;99.90
17053;DHT22;8643;48.824;11.422;2024-02-26T00:59:52;2.40;99.90
17053;DHT22;8643;48.824;11.422;2024-02-26T01:02:22;2.30;99.90
17053;DHT22;8643;48.824;11.422;2024-02-26T01:04:51;2.30;99.90
17053;DHT22;8643;48.824;11.422;2024-02-26T01:07:19;2.20;99.90
17053;DHT22;8643;48.824;11.422;2024-02-26T01:12:17;2.10;99.90
17053;DHT22;8643;48.824;11.422;2024-02-26T01:14:45;2.10;99.90
17053;DHT22;8643;48.824;11.422;2024-02-26T01:17:15;2.10;99.90
17053;DHT22;8643;48.824;11.422;2024-02-26T01:19:44;2.00;99.90
17053;DHT22;8643;48.824;11.422;2024-02-26T01:22:13;1.90;99.90
17053;DHT22;8643;48.824;11.422;2024-02-26T01:24:41;1.90;99.90
17053;DHT22;8643;48.824;11.422;2024-02-26T01:27:10;2.00;99.90
17053;DHT22;8643;48.824;11.422;2024-02-26T01:29:38;1.90;99.90
17053;DHT22;8643;48.824;11.422;2024-02-26T01:32:08;1.90;99.90
17053;DHT22;8643;48.824;11.422;2024-02-26T01:34:38;1.90;99.90
17053;DHT22;8643;48.824;11.422;2024-02-26T01:37:06;1.90;99.90
17053;DHT22;8643;48.824;11.422;2024-02-26T01:42:04;1.90;99.90
17053;DHT22;8643;48.824;11.422;2024-02-26T01:44:32;1.90;99.90
17053;DHT22;8643;48.824;11.422;2024-02-26T01:47:02;1.90;99.90
17053;DHT22;8643;48.824;11.422;2024-02-26T01:49:30;1.90;99.90
17053;DHT22;8643;48.824;11.422;2024-02-26T01:52:02;1.90;99.90
17053;DHT22;8643;48.824;11.422;2024-02-26T01:54:34;1.90;99.90
17053;DHT22;8643;48.824;11.422;2024-02-26T01:57:05;1.90;99.90
17053;DHT22;8643;48.824;11.422;2024-02-26T01:59:34;1.90;99.90
17053;DHT22;8643;48.824;11.422;2024-02-26T02:02:06;1.90;99.90
17053;DHT22;8643;48.824;11.422;2024-02-26T02:04:38;1.90;99.90
17053;DHT22;8643;48.824;11.422;2024-02-26T02:07:09;1.90;99.90
17053;DHT22;8643;48.824;11.422;2024-02-26T02:09:38;1.90;99.90
17053;DHT22;8643;48.824;11.422;2024-02-26T02:12:06;1.90;99.90
17053;DHT22;8643;48.824;11.422;2024-02-26T02:14:35;2.00;99.90
17053;DHT22;8643;48.824;11.422;2024-02-26T02:17:03;2.10;99.90
17053;DHT22;8643;48.824;11.422;2024-02-26T02:19:32;2.00;99.90
17053;DHT22;8643;48.824;11.422;2024-02-26T02:22:02;2.20;99.90
17053;DHT22;8643;48.824;11.422;2024-02-26T02:24:30;2.30;99.90
17053;DHT22;8643;48.824;11.422;2024-02-26T02:26:59;2.40;99.90
17053;DHT22;8643;48.824;11.422;2024-02-26T02:29:28;2.30;99.90
17053;DHT22;8643;48.824;11.422;2024-02-26T02:31:57;2.40;99.90
17053;DHT22;8643;48.824;11.422;2024-02-26T02:34:25;2.40;99.90
17053;DHT22;8643;48.824;11.422;2024-02-26T02:36:55;2.40;99.90
17053;DHT22;8643;48.824;11.422;2024-02-26T02:39:25;2.50;99.90
17053;DHT22;8643;48.824;11.422;2024-02-26T02:41:53;2.50;99.90
17053;DHT22;8643;48.824;11.422;2024-02-26T02:44:22;2.50;99.90
17053;DHT22;8643;48.824;11.422;2024-02-26T02:46:50;2.50;99.90
17053;DHT22;8643;48.824;11.422;2024-02-26T02:49:20;2.50;99.90
17053;DHT22;8643;48.824;11.422;2024-02-26T02:51:51;2.50;99.90
17053;DHT22;8643;48.824;11.422;2024-02-26T02:54:20;2.50;99.90
17053;DHT22;8643;48.824;11.422;2024-02-26T02:56:50;2.50;99.90
17053;DHT22;8643;48.824;11.422;2024-02-26T02:59:20;2.50;99.90
17053;DHT22;8643;48.824;11.422;2024-02-26T03:01:48;2.50;99.90
17053;DHT22;8643;48.824;11.422;2024-02-26T03:04:17;2.50;99.90
17053;DHT22;8643;48.824;11.422;2024-02-26T03:06:45;2.50;99.90
17053;DHT22;8643;48.824;11.422;2024-02-26T03:09:14;2.50;99.90
17053;DHT22;8643;48.824;11.422;2024-02-26T03:11:43;2.50;99.90
17053;DHT22;8643;48.824;11.422;2024-02-26T03:14:13;2.60;99.90
17053;DHT22;8643;48.824;11.422;2024-02-26T03:16:41;2.60;99.90
17053;DHT22;8643;48.824;11.422;2024-02-26T03:19:10;2.50;99.90
17053;DHT22;8643;48.824;11.422;2024-02-26T03:21:38;2.60;99.90
17053;DHT22;8643;48.824;11.422;2024-02-26T03:24:07;2.60;99.90
17053;DHT22;8643;48.824;11.422;2024-02-26T03:26:37;2.60;99.90
17053;DHT22;8643;48.824;11.422;2024-02-26T03:29:06;2.70;99.90
17053;DHT22;8643;48.824;11.422;2024-02-26T03:31:36;2.80;99.90
17053;DHT22;8643;48.824;11.422;2024-02-26T03:34:04;2.80;99.90
17053;DHT22;8643;48.824;11.422;2024-02-26T03:36:33;2.80;99.90
17053;DHT22;8643;48.824;11.422;2024-02-26T03:39:02;2.80;99.90
17053;DHT22;8643;48.824;11.422;2024-02-26T03:41:34;2.80;99.90
17053;DHT22;8643;48.824;11.422;2024-02-26T03:46:32;2.20;99.90
17053;DHT22;8643;48.824;11.422;2024-02-26T03:49:02;2.90;99.90
17053;DHT22;8643;48.824;11.422;2024-02-26T03:53:59;2.90;99.90
17053;DHT22;8643;48.824;11.422;2024-02-26T03:56:28;2.90;99.90
17053;DHT22;8643;48.824;11.422;2024-02-26T03:58:57;3.00;99.90
17053;DHT22;8643;48.824;11.422;2024-02-26T04:01:26;3.00;99.90
17053;DHT22;8643;48.824;11.422;2024-02-26T04:03:55;3.10;99.90
17053;DHT22;8643;48.824;11.422;2024-02-26T04:06:25;3.10;99.90
17053;DHT22;8643;48.824;11.422;2024-02-26T04:08:54;3.20;99.90
17053;DHT22;8643;48.824;11.422;2024-02-26T04:11:22;3.20;99.90
17053;DHT22;8643;48.824;11.422;2024-02-26T04:13:51;3.20;99.90
17053;DHT22;8643;48.824;11.422;2024-02-26T04:16:19;3.20;99.90
17053;DHT22;8643;48.824;11.422;2024-02-26T04:18:48;3.20;99.90
17053;DHT22;8643;48.824;11.422;2024-02-26T04:21:17;3.30;99.90
17053;DHT22;8643;48.824;11.422;2024-02-26T04:23:47;3.30;99.90
17053;DHT22;8643;48.824;11.422;2024-02-26T04:26:16;3.20;99.90
17053;DHT22;8643;48.824;11.422;2024-02-26T04:28:44;3.20;99.90
17053;DHT22;8643;48.824;11.422;2024-02-26T04:31:13;3.30;99.90
17053;DHT22;8643;48.824;11.422;2024-02-26T04:33:41;3.30;99.90
17053;DHT22;8643;48.824;11.422;2024-02-26T04:36:13;3.30;99.90
17053;DHT22;8643;48.824;11.422;2024-02-26T04:41:12;3.20;99.90
17053;DHT22;8643;48.824;11.422;2024-02-26T04:43:41;3.20;99.90
17053;DHT22;8643;48.824;11.422;2024-02-26T04:46:10;3.30;99.90
17053;DHT22;8643;48.824;11.422;2024-02-26T04:48:38;3.20;99.90
17053;DHT22;8643;48.824;11.422;2024-02-26T04:51:09;3.20;99.90
17053;DHT22;8643;48.824;11.422;2024-02-26T04:53:37;3.30;99.90
17053;DHT22;8643;48.824;11.422;2024-02-26T04:56:06;3.30;99.90
17053;DHT22;8643;48.824;11.422;2024-02-26T04:58:36;3.20;99.90
17053;DHT22;8643;48.824;11.422;2024-02-26T05:01:04;3.20;99.90
17053;DHT22;8643;48.824;11.422;2024-02-26T05:03:33;3.30;99.90
17053;DHT22;8643;48.824;11.422;2024-02-26T05:06:04;3.30;99.90
17053;DHT22;8643;48.824;11.422;2024-02-26T05:08:33;3.30;99.90
17053;DHT22;8643;48.824;11.422;2024-02-26T05:11:03;3.30;99.90
17053;DHT22;8643;48.824;11.422;2024-02-26T05:13:32;3.30;99.90
17053;DHT22;8643;48.824;11.422;2024-02-26T05:16:02;3.30;99.90
17053;DHT22;8643;48.824;11.422;2024-02-26T05:18:31;3.30;99.90
17053;DHT22;8643;48.824;11.422;2024-02-26T05:21:00;3.30;99.90
17053;DHT22;8643;48.824;11.422;2024-02-26T05:23:29;3.30;99.90
17053;DHT22;8643;48.824;11.422;2024-02-26T05:25:57;3.30;99.90
17053;DHT22;8643;48.824;11.422;2024-02-26T05:28:26;3.20;99.90
17053;DHT22;8643;48.824;11.422;2024-02-26T05:30:55;3.20;99.90
17053;DHT22;8643;48.824;11.422;2024-02-26T05:33:24;3.10;99.90
17053;DHT22;8643;48.824;11.422;2024-02-26T05:35:53;3.10;99.90
17053;DHT22;8643;48.824;11.422;2024-02-26T05:38:21;3.10;99.90
17053;DHT22;8643;48.824;11.422;2024-02-26T05:40:50;3.10;99.90
17053;DHT22;8643;48.824;11.422;2024-02-26T05:43:19;3.00;99.90
17053;DHT22;8643;48.824;11.422;2024-02-26T05:45:47;3.00;99.90
17053;DHT22;8643;48.824;11.422;2024-02-26T05:48:16;3.00;99.90
17053;DHT22;8643;48.824;11.422;2024-02-26T05:50:47;3.00;99.90
17053;DHT22;8643;48.824;11.422;2024-02-26T05:53:16;2.90;99.90
17053;DHT22;8643;48.824;11.422;2024-02-26T05:55:44;2.80;99.90
17053;DHT22;8643;48.824;11.422;2024-02-26T05:58:13;2.70;99.90
17053;DHT22;8643;48.824;11.422;2024-02-26T06:00:41;2.70;99.90
17053;DHT22;8643;48.824;11.422;2024-02-26T06:03:10;2.60;99.90
17053;DHT22;8643;48.824;11.422;2024-02-26T06:05:39;2.60;99.90
17053;DHT22;8643;48.824;11.422;2024-02-26T06:08:09;2.50;99.90
17053;DHT22;8643;48.824;11.422;2024-02-26T06:10:38;2.40;99.90
17053;DHT22;8643;48.824;11.422;2024-02-26T06:13:07;2.40;99.90
17053;DHT22;8643;48.824;11.422;2024-02-26T06:15:36;2.40;99.90
17053;DHT22;8643;48.824;11.422;2024-02-26T06:18:05;2.30;99.90
17053;DHT22;8643;48.824;11.422;2024-02-26T06:20:33;2.20;99.90
17053;DHT22;8643;48.824;11.422;2024-02-26T06:23:01;2.20;99.90
17053;DHT22;8643;48.824;11.422;2024-02-26T06:25:31;2.20;99.90
17053;DHT22;8643;48.824;11.422;2024-02-26T06:28:00;2.10;99.90
17053;DHT22;8643;48.824;11.422;2024-02-26T06:32:58;2.10;99.90
17053;DHT22;8643;48.824;11.422;2024-02-26T06:37:55;2.20;99.90
17053;DHT22;8643;48.824;11.422;2024-02-26T06:40:24;2.20;99.90
17053;DHT22;8643;48.824;11.422;2024-02-26T06:42:54;2.20;99.90
17053;DHT22;8643;48.824;11.422;2024-02-26T06:45:23;2.30;99.90
17053;DHT22;8643;48.824;11.422;2024-02-26T06:47:51;2.30;99.90
17053;DHT22;8643;48.824;11.422;2024-02-26T06:50:20;2.40;99.90
17053;DHT22;8643;48.824;11.422;2024-02-26T06:52:48;2.50;99.90
17053;DHT22;8643;48.824;11.422;2024-02-26T06:55:17;2.70;99.90
17053;DHT22;8643;48.824;11.422;2024-02-26T06:57:45;2.80;99.90
17053;DHT22;8643;48.824;11.422;2024-02-26T07:00:16;2.90;99.90
17053;DHT22;8643;48.824;11.422;2024-02-26T07:02:45;3.10;99.90
17053;DHT22;8643;48.824;11.422;2024-02-26T07:05:14;3.10;99.90
17053;DHT22;8643;48.824;11.422;2024-02-26T07:07:42;3.20;99.90
17053;DHT22;8643;48.824;11.422;2024-02-26T07:12:40;3.50;99.90
17053;DHT22;8643;48.824;11.422;2024-02-26T07:15:09;3.70;99.90
17053;DHT22;8643;48.824;11.422;2024-02-26T07:17:40;3.80;99.90
17053;DHT22;8643;48.824;11.422;2024-02-26T07:20:14;4.00;99.90
17053;DHT22;8643;48.824;11.422;2024-02-26T07:22:43;4.10;99.90
17053;DHT22;8643;48.824;11.422;2024-02-26T07:25:12;4.10;99.90
17053;DHT22;8643;48.824;11.422;2024-02-26T07:27:40;4.20;99.90
17053;DHT22;8643;48.824;11.422;2024-02-26T07:30:10;4.30;99.90
17053;DHT22;8643;48.824;11.422;2024-02-26T07:32:41;4.40;99.90
17053;DHT22;8643;48.824;11.422;2024-02-26T07:35:09;4.50;99.90
17053;DHT22;8643;48.824;11.422;2024-02-26T07:37:38;4.60;99.90
17053;DHT22;8643;48.824;11.422;2024-02-26T07:40:09;4.70;99.90
17053;DHT22;8643;48.824;11.422;2024-02-26T07:42:38;4.80;99.90
17053;DHT22;8643;48.824;11.422;2024-02-26T07:45:08;5.10;99.90
17053;DHT22;8643;48.824;11.422;2024-02-26T07:47:37;5.60;99.90
17053;DHT22;8643;48.824;11.422;2024-02-26T07:50:10;5.60;99.90
17053;DHT22;8643;48.824;11.422;2024-02-26T07:52:39;4.90;99.90
17053;DHT22;8643;48.824;11.422;2024-02-26T07:55:09;6.10;99.90
17053;DHT22;8643;48.824;11.422;2024-02-26T07:57:37;6.20;99.90
17053;DHT22;8643;48.824;11.422;2024-02-26T08:00:10;6.10;99.90
17053;DHT22;8643;48.824;11.422;2024-02-26T08:02:43;6.10;99.90
17053;DHT22;8643;48.824;11.422;2024-02-26T08:05:14;6.00;99.90
17053;DHT22;8643;48.824;11.422;2024-02-26T08:07:42;6.10;99.90
17053;DHT22;8643;48.824;11.422;2024-02-26T08:10:11;6.00;99.90
17053;DHT22;8643;48.824;11.422;2024-02-26T08:12:39;6.00;99.90
17053;DHT22;8643;48.824;11.422;2024-02-26T08:15:08;5.80;99.90
17053;DHT22;8643;48.824;11.422;2024-02-26T08:17:38;5.60;99.90
17053;DHT22;8643;48.824;11.422;2024-02-26T08:20:07;5.60;99.90
17053;DHT22;8643;48.824;11.422;2024-02-26T08:22:38;5.50;99.90
17053;DHT22;8643;48.824;11.422;2024-02-26T08:25:07;5.50;99.90
17053;DHT22;8643;48.824;11.422;2024-02-26T08:27:37;5.50;99.90
17053;DHT22;8643;48.824;11.422;2024-02-26T08:30:06;5.60;99.90
17053;DHT22;8643;48.824;11.422;2024-02-26T08:32:36;5.60;99.90
17053;DHT22;8643;48.824;11.422;2024-02-26T08:35:05;5.60;99.90
17053;DHT22;8643;48.824;11.422;2024-02-26T08:37:34;5.80;99.90
17053;DHT22;8643;48.824;11.422;2024-02-26T08:40:05;6.10;99.90
17053;DHT22;8643;48.824;11.422;2024-02-26T08:42:38;6.20;99.90
17053;DHT22;8643;48.824;11.422;2024-02-26T08:45:07;6.70;99.90
17053;DHT22;8643;48.824;11.422;2024-02-26T08:47:36;7.30;99.90
17053;DHT22;8643;48.824;11.422;2024-02-26T08:50:05;7.80;99.90
17053;DHT22;8643;48.824;11.422;2024-02-26T08:52:36;8.60;99.90
17053;DHT22;8643;48.824;11.422;2024-02-26T08:55:07;9.30;99.90
17053;DHT22;8643;48.824;11.422;2024-02-26T08:57:36;9.70;99.90
17053;DHT22;8643;48.824;11.422;2024-02-26T09:00:06;10.00;99.90
17053;DHT22;8643;48.824;11.422;2024-02-26T09:02:37;10.00;99.90
17053;DHT22;8643;48.824;11.422;2024-02-26T09:05:07;10.10;99.90
17053;DHT22;8643;48.824;11.422;2024-02-26T09:07:35;10.10;99.90
17053;DHT22;8643;48.824;11.422;2024-02-26T09:10:07;10.00;99.90
17053;DHT22;8643;48.824;11.422;2024-02-26T09:12:37;9.80;99.90
17053;DHT22;8643;48.824;11.422;2024-02-26T09:15:07;9.70;99.90
17053;DHT22;8643;48.824;11.422;2024-02-26T09:17:37;9.50;99.90
17053;DHT22;8643;48.824;11.422;2024-02-26T09:20:06;9.40;99.90
17053;DHT22;8643;48.824;11.422;2024-02-26T09:22:36;9.30;99.90
17053;DHT22;8643;48.824;11.422;2024-02-26T09:25:07;9.30;99.90
17053;DHT22;8643;48.824;11.422;2024-02-26T09:27:36;9.30;99.90
17053;DHT22;8643;48.824;11.422;2024-02-26T09:30:10;8.90;99.90
17053;DHT22;8643;48.824;11.422;2024-02-26T09:32:40;8.60;99.90
17053;DHT22;8643;48.824;11.422;2024-02-26T09:35:09;8.60;99.90
17053;DHT22;8643;48.824;11.422;2024-02-26T09:37:37;8.50;99.90
17053;DHT22;8643;48.824;11.422;2024-02-26T09:40:08;8.10;99.90
17053;DHT22;8643;48.824;11.422;2024-02-26T09:42:43;7.80;99.90
17053;DHT22;8643;48.824;11.422;2024-02-26T09:45:21;7.60;99.90
17053;DHT22;8643;48.824;11.422;2024-02-26T09:47:50;7.40;99.90
17053;DHT22;8643;48.824;11.422;2024-02-26T09:50:20;7.30;99.90
17053;DHT22;8643;48.824;11.422;2024-02-26T09:52:51;7.30;99.90
17053;DHT22;8643;48.824;11.422;2024-02-26T09:55:23;7.30;99.90
17053;DHT22;8643;48.824;11.422;2024-02-26T09:57:52;7.30;99.90
17053;DHT22;8643;48.824;11.422;2024-02-26T10:00:22;7.40;99.90
17053;DHT22;8643;48.824;11.422;2024-02-26T10:02:51;7.40;99.90
17053;DHT22;8643;48.824;11.422;2024-02-26T10:05:21;7.50;99.90
17053;DHT22;8643;48.824;11.422;2024-02-26T10:07:50;7.60;99.90
17053;DHT22;8643;48.824;11.422;2024-02-26T10:10:20;7.70;99.90
17053;DHT22;8643;48.824;11.422;2024-02-26T10:12:51;7.70;99.90
17053;DHT22;8643;48.824;11.422;2024-02-26T10:15:20;7.80;99.90
17053;DHT22;8643;48.824;11.422;2024-02-26T10:17:48;7.80;99.90
17053;DHT22;8643;48.824;11.422;2024-02-26T10:20:18;7.90;99.90
17053;DHT22;8643;48.824;11.422;2024-02-26T10:22:51;7.90;99.90
17053;DHT22;8643;48.824;11.422;2024-02-26T10:25:19;7.90;99.90
17053;DHT22;8643;48.824;11.422;2024-02-26T10:27:48;8.00;99.90
17053;DHT22;8643;48.824;11.422;2024-02-26T10:30:19;8.10;99.90
17053;DHT22;8643;48.824;11.422;2024-02-26T10:32:50;8.20;99.90
17053;DHT22;8643;48.824;11.422;2024-02-26T10:35:19;8.40;99.90
17053;DHT22;8643;48.824;11.422;2024-02-26T10:37:49;8.30;99.90
17053;DHT22;8643;48.824;11.422;2024-02-26T10:40:18;8.60;99.90
17053;DHT22;8643;48.824;11.422;2024-02-26T10:42:47;8.80;99.90
17053;DHT22;8643;48.824;11.422;2024-02-26T10:45:15;9.10;99.90
17053;DHT22;8643;48.824;11.422;2024-02-26T10:47:46;9.20;99.90
17053;DHT22;8643;48.824;11.422;2024-02-26T10:50:15;9.40;99.90
17053;DHT22;8643;48.824;11.422;2024-02-26T10:52:44;9.50;99.90
17053;DHT22;8643;48.824;11.422;2024-02-26T10:55:16;9.70;99.90
17053;DHT22;8643;48.824;11.422;2024-02-26T10:57:47;9.80;99.90
17053;DHT22;8643;48.824;11.422;2024-02-26T11:00:20;9.80;99.90
17053;DHT22;8643;48.824;11.422;2024-02-26T11:02:51;9.90;99.90
17053;DHT22;8643;48.824;11.422;2024-02-26T11:05:21;10.00;99.90
17053;DHT22;8643;48.824;11.422;2024-02-26T11:07:52;9.80;99.90
17053;DHT22;8643;48.824;11.422;2024-02-26T11:10:24;9.80;99.90
17053;DHT22;8643;48.824;11.422;2024-02-26T11:12:56;9.80;99.90
17053;DHT22;8643;48.824;11.422;2024-02-26T11:15:28;9.80;99.90
17053;DHT22;8643;48.824;11.422;2024-02-26T11:18:01;9.90;99.90
17053;DHT22;8643;48.824;11.422;2024-02-26T11:20:30;9.90;99.90
17053;DHT22;8643;48.824;11.422;2024-02-26T11:23:01;9.80;99.90
17053;DHT22;8643;48.824;11.422;2024-02-26T11:25:30;10.00;99.90
17053;DHT22;8643;48.824;11.422;2024-02-26T11:28:05;10.10;99.90
17053;DHT22;8643;48.824;11.422;2024-02-26T11:30:39;9.90;99.90
17053;DHT22;8643;48.824;11.422;2024-02-26T11:33:15;10.10;99.90
17053;DHT22;8643;48.824;11.422;2024-02-26T11:35:45;10.20;99.90
17053;DHT22;8643;48.824;11.422;2024-02-26T11:38:19;10.30;99.90
17053;DHT22;8643;48.824;11.422;2024-02-26T11:40:53;10.30;99.90
17053;DHT22;8643;48.824;11.422;2024-02-26T11:43:23;10.30;99.90
17053;DHT22;8643;48.824;11.422;2024-02-26T11:46:25;10.40;99.90
17053;DHT22;8643;48.824;11.422;2024-02-26T11:48:58;10.50;99.90
17053;DHT22;8643;48.824;11.422;2024-02-26T11:51:27;10.60;99.90
17053;DHT22;8643;48.824;11.422;2024-02-26T11:54:01;11.20;99.90
17053;DHT22;8643;48.824;11.422;2024-02-26T11:56:34;12.00;99.90
17053;DHT22;8643;48.824;11.422;2024-02-26T11:59:04;12.10;99.90
17053;DHT22;8643;48.824;11.422;2024-02-26T12:01:38;12.30;98.50
17053;DHT22;8643;48.824;11.422;2024-02-26T12:04:12;12.30;98.10
17053;DHT22;8643;48.824;11.422;2024-02-26T12:06:47;12.30;99.90
17053;DHT22;8643;48.824;11.422;2024-02-26T12:09:36;12.40;99.90
17053;DHT22;8643;48.824;11.422;2024-02-26T12:12:06;13.20;95.20
17053;DHT22;8643;48.824;11.422;2024-02-26T12:14:40;13.80;96.50
17053;DHT22;8643;48.824;11.422;2024-02-26T12:17:19;14.50;91.90
17053;DHT22;8643;48.824;11.422;2024-02-26T12:19:51;14.80;90.70
17053;DHT22;8643;48.824;11.422;2024-02-26T12:22:21;14.70;88.50
17053;DHT22;8643;48.824;11.422;2024-02-26T12:24:58;14.30;86.70
17053;DHT22;8643;48.824;11.422;2024-02-26T12:27:28;13.90;89.10
17053;DHT22;8643;48.824;11.422;2024-02-26T12:29:57;13.80;89.80
17053;DHT22;8643;48.824;11.422;2024-02-26T12:32:25;12.90;91.70
17053;DHT22;8643;48.824;11.422;2024-02-26T12:34:56;12.90;92.00
17053;DHT22;8643;48.824;11.422;2024-02-26T12:37:25;13.00;91.50
17053;DHT22;8643;48.824;11.422;2024-02-26T12:39:54;13.00;91.70
17053;DHT22;8643;48.824;11.422;2024-02-26T12:42:23;13.40;93.60
17053;DHT22;8643;48.824;11.422;2024-02-26T12:44:52;13.80;91.60
17053;DHT22;8643;48.824;11.422;2024-02-26T12:47:21;14.00;91.70
17053;DHT22;8643;48.824;11.422;2024-02-26T12:49:49;14.30;92.50
17053;DHT22;8643;48.824;11.422;2024-02-26T12:52:20;14.10;92.50
17053;DHT22;8643;48.824;11.422;2024-02-26T12:54:48;13.90;92.60
17053;DHT22;8643;48.824;11.422;2024-02-26T12:57:17;13.80;92.80
17053;DHT22;8643;48.824;11.422;2024-02-26T12:59:46;13.30;93.70
17053;DHT22;8643;48.824;11.422;2024-02-26T13:02:14;12.80;94.60
17053;DHT22;8643;48.824;11.422;2024-02-26T13:04:43;12.80;94.90
17053;DHT22;8643;48.824;11.422;2024-02-26T13:07:12;12.00;96.70
17053;DHT22;8643;48.824;11.422;2024-02-26T13:09:42;12.00;97.00
17053;DHT22;8643;48.824;11.422;2024-02-26T13:12:12;11.80;96.70
17053;DHT22;8643;48.824;11.422;2024-02-26T13:14:41;11.70;97.20
17053;DHT22;8643;48.824;11.422;2024-02-26T13:17:10;11.70;95.50
17053;DHT22;8643;48.824;11.422;2024-02-26T13:19:49;11.60;98.10
17053;DHT22;8643;48.824;11.422;2024-02-26T13:22:20;11.50;97.20
17053;DHT22;8643;48.824;11.422;2024-02-26T13:24:58;11.40;97.40
17053;DHT22;8643;48.824;11.422;2024-02-26T13:27:29;10.90;97.30
17053;DHT22;8643;48.824;11.422;2024-02-26T13:30:03;10.90;97.60
17053;DHT22;8643;48.824;11.422;2024-02-26T13:32:34;9.40;97.10
17053;DHT22;8643;48.824;11.422;2024-02-26T13:35:07;10.60;97.90
17053;DHT22;8643;48.824;11.422;2024-02-26T13:37:36;10.70;99.40
17053;DHT22;8643;48.824;11.422;2024-02-26T13:40:09;10.70;99.30
17053;DHT22;8643;48.824;11.422;2024-02-26T13:42:39;10.80;99.00
17053;DHT22;8643;48.824;11.422;2024-02-26T13:45:08;10.80;98.40
17053;DHT22;8643;48.824;11.422;2024-02-26T13:47:37;10.80;99.40
17053;DHT22;8643;48.824;11.422;2024-02-26T13:50:08;10.80;99.10
17053;DHT22;8643;48.824;11.422;2024-02-26T13:52:36;10.80;99.00
17053;DHT22;8643;48.824;11.422;2024-02-26T13:55:07;10.80;98.80
17053;DHT22;8643;48.824;11.422;2024-02-26T13:57:36;10.70;99.90
17053;DHT22;8643;48.824;11.422;2024-02-26T14:00:06;10.60;99.90
17053;DHT22;8643;48.824;11.422;2024-02-26T14:02:40;10.50;99.90
17053;DHT22;8643;48.824;11.422;2024-02-26T14:05:08;10.40;99.90
17053;DHT22;8643;48.824;11.422;2024-02-26T14:07:37;10.40;99.90
17053;DHT22;8643;48.824;11.422;2024-02-26T14:10:08;10.40;99.90
17053;DHT22;8643;48.824;11.422;2024-02-26T14:12:39;10.30;99.90
17053;DHT22;8643;48.824;11.422;2024-02-26T14:15:09;10.50;99.90
17053;DHT22;8643;48.824;11.422;2024-02-26T14:20:08;10.40;99.90
17053;DHT22;8643;48.824;11.422;2024-02-26T14:22:37;10.40;99.90
17053;DHT22;8643;48.824;11.422;2024-02-26T14:25:07;10.50;99.90
17053;DHT22;8643;48.824;11.422;2024-02-26T14:27:37;10.50;99.90
17053;DHT22;8643;48.824;11.422;2024-02-26T14:30:06;10.50;99.90
17053;DHT22;8643;48.824;11.422;2024-02-26T14:32:35;10.50;99.90
17053;DHT22;8643;48.824;11.422;2024-02-26T14:35:06;10.40;99.90
17053;DHT22;8643;48.824;11.422;2024-02-26T14:37:42;10.40;99.90
17053;DHT22;8643;48.824;11.422;2024-02-26T14:40:16;10.30;99.90
17053;DHT22;8643;48.824;11.422;2024-02-26T14:42:44;10.30;99.90
17053;DHT22;8643;48.824;11.422;2024-02-26T14:45:13;10.20;99.90
17053;DHT22;8643;48.824;11.422;2024-02-26T14:47:43;10.20;99.90
17053;DHT22;8643;48.824;11.422;2024-02-26T14:50:12;10.10;99.90
17053;DHT22;8643;48.824;11.422;2024-02-26T14:52:40;10.10;99.90
17053;DHT22;8643;48.824;11.422;2024-02-26T14:55:09;10.10;99.90
17053;DHT22;8643;48.824;11.422;2024-02-26T14:57:39;10.20;99.90
17053;DHT22;8643;48.824;11.422;2024-02-26T15:00:09;10.10;99.90
17053;DHT22;8643;48.824;11.422;2024-02-26T15:02:38;10.10;99.90
17053;DHT22;8643;48.824;11.422;2024-02-26T15:05:07;10.10;99.90
17053;DHT22;8643;48.824;11.422;2024-02-26T15:07:38;10.10;99.90
17053;DHT22;8643;48.824;11.422;2024-02-26T15:10:08;10.00;99.90
17053;DHT22;8643;48.824;11.422;2024-02-26T15:12:36;10.00;99.90
17053;DHT22;8643;48.824;11.422;2024-02-26T15:15:08;9.90;99.90
17053;DHT22;8643;48.824;11.422;2024-02-26T15:17:37;9.90;99.90
17053;DHT22;8643;48.824;11.422;2024-02-26T15:20:06;9.80;99.90
17053;DHT22;8643;48.824;11.422;2024-02-26T15:22:38;9.80;99.90
17053;DHT22;8643;48.824;11.422;2024-02-26T15:25:07;9.80;99.90
17053;DHT22;8643;48.824;11.422;2024-02-26T15:27:40;9.70;99.90
17053;DHT22;8643;48.824;11.422;2024-02-26T15:30:11;9.60;99.90
17053;DHT22;8643;48.824;11.422;2024-02-26T15:32:40;9.50;99.90
17053;DHT22;8643;48.824;11.422;2024-02-26T15:35:10;9.40;99.90
17053;DHT22;8643;48.824;11.422;2024-02-26T15:37:39;9.40;99.90
17053;DHT22;8643;48.824;11.422;2024-02-26T15:40:08;9.30;99.90
17053;DHT22;8643;48.824;11.422;2024-02-26T15:42:38;9.20;99.90
17053;DHT22;8643;48.824;11.422;2024-02-26T15:45:07;9.20;99.90
17053;DHT22;8643;48.824;11.422;2024-02-26T15:47:37;9.20;99.90
17053;DHT22;8643;48.824;11.422;2024-02-26T15:50:06;9.00;99.90
17053;DHT22;8643;48.824;11.422;2024-02-26T15:52:37;9.00;99.90
17053;DHT22;8643;48.824;11.422;2024-02-26T15:55:06;9.00;99.90
17053;DHT22;8643;48.824;11.422;2024-02-26T15:57:40;8.90;99.90
17053;DHT22;8643;48.824;11.422;2024-02-26T16:00:10;8.90;99.90
17053;DHT22;8643;48.824;11.422;2024-02-26T16:02:41;8.90;99.90
17053;DHT22;8643;48.824;11.422;2024-02-26T16:05:09;8.90;99.90
17053;DHT22;8643;48.824;11.422;2024-02-26T16:07:43;8.80;99.90
17053;DHT22;8643;48.824;11.422;2024-02-26T16:10:16;8.80;99.90
17053;DHT22;8643;48.824;11.422;2024-02-26T16:12:49;8.70;99.90
17053;DHT22;8643;48.824;11.422;2024-02-26T16:15:21;8.70;99.90
17053;DHT22;8643;48.824;11.422;2024-02-26T16:17:51;8.70;99.90
17053;DHT22;8643;48.824;11.422;2024-02-26T16:20:23;8.50;99.90
17053;DHT22;8643;48.824;11.422;2024-02-26T16:22:52;8.50;99.90
17053;DHT22;8643;48.824;11.422;2024-02-26T16:25:21;8.50;99.90
17053;DHT22;8643;48.824;11.422;2024-02-26T16:27:50;8.50;99.90